Auburn Junction, Indiana
Current Conditions -  °F | °C
As of 2:15 AM on Saturday 29 Nov 2014 (Local Time) from KGWB Reporting Station
Scattered Clouds Scattered Clouds  
Wind Chill:   Ceiling: Unl
Heat Index:   Visibility: 10mi
Dew Point: -5°   Wind: 0mph
Humidity: 69%   Direction: NA
Pressure: 30"   Gusts: NA
Location:  41.3419°N, 85.0357°W
Report Text: KGWB 290715Z AUTO 00000KT 10SM SCT120 00/M05 A3000 RMK AO2
Loading
Personal Weather Stations






























Interactive Weather Map New forecast layout! Learn more

10-Day Weather Forecast

Advertisements
Track Severe Weather on mobile